Terminal Aerodrome Forecast
Issued by NWS

Home | Current Version | Previous Version | Text Only | Print | Product List | Glossary Off
Versions: 1 2 3 4 5 6 7 8 9 10 11 12 13 14

603
FTUS43 KICT 260741 AAA
TAFRSL
TAF AMD
KRSL 260741Z 2608/2706 17015G21KT P6SM FEW100 BKN250
     FM260830 18016G22KT P6SM VCTS SCT100CB BKN250
     FM261100 18016G22KT P6SM SCT100 BKN250
     FM261600 21014G20KT P6SM SCT100
     FM262100 25014KT P6SM SCT250=

USA.gov is the U.S. government's official web portal to all federal, state and local government web resources and services.